Time;durP1;ratioP1;P1;durP2;ratioP2;P2;SDS_P1;SDS_P2;PMS_P1;PMS_P2;Temp;Humidity;BMP_temperature;BMP_pressure;BME280_temperature;BME280_humidity;BME280_pressure;Samples;Min_cycle;Max_cycle;Signal;HPM_P1;HPM_P2
2021/04/11 00:01:43;;;;;;;4.25;2.50;;;;;;;10.79;53.76;98191.66;3569439;40;20053;-65
2021/04/11 00:04:11;;;;;;;3.28;2.63;;;;;;;10.82;53.96;98180.69;3568856;40;20044;-64
2021/04/11 00:06:38;;;;;;;6.35;3.25;;;;;;;10.78;53.81;98180.28;3568921;40;20056;-67
2021/04/11 00:09:06;;;;;;;4.72;3.05;;;;;;;10.72;53.93;98182.94;3568988;40;20329;-65
2021/04/11 00:11:33;;;;;;;4.38;2.67;;;;;;;10.66;54.24;98176.66;3568923;40;20392;-64
2021/04/11 00:14:00;;;;;;;4.13;2.80;;;;;;;10.69;54.40;98167.50;3568718;40;20056;-64
2021/04/11 00:16:26;;;;;;;4.38;2.65;;;;;;;10.70;54.47;98169.13;3568944;40;20052;-65
2021/04/11 00:18:54;;;;;;;4.75;2.95;;;;;;;10.74;54.77;98168.50;3569116;40;20071;-65
2021/04/11 00:21:21;;;;;;;4.53;3.38;;;;;;;10.78;54.71;98177.66;3567240;40;20419;-64
2021/04/11 00:23:48;;;;;;;3.42;2.95;;;;;;;10.77;54.85;98173.34;3568782;40;20057;-64
2021/04/11 00:26:15;;;;;;;3.72;3.20;;;;;;;10.79;55.27;98173.97;3568948;40;20053;-65
2021/04/11 00:28:41;;;;;;;3.63;3.20;;;;;;;10.76;55.49;98166.44;3569071;40;20050;-64
2021/04/11 00:31:08;;;;;;;3.03;2.72;;;;;;;10.82;55.66;98156.88;3568757;40;20053;-65
2021/04/11 00:33:37;;;;;;;5.53;3.30;;;;;;;10.85;55.63;98154.59;3567723;40;20044;-65
2021/04/11 00:36:07;;;;;;;5.63;3.05;;;;;;;10.91;55.94;98153.78;3568591;40;20309;-64
2021/04/11 00:38:35;;;;;;;7.93;3.75;;;;;;;10.90;56.07;98143.44;3568736;40;20332;-65
2021/04/11 00:41:10;;;;;;;3.97;2.88;;;;;;;10.88;56.46;98138.34;3568865;40;20348;-65
2021/04/11 00:43:38;;;;;;;3.60;2.92;;;;;;;10.85;57.03;98141.38;3569107;40;20061;-64
2021/04/11 00:46:15;;;;;;;6.65;3.25;;;;;;;10.88;57.44;98140.16;3568653;40;20131;-64
2021/04/11 00:48:43;;;;;;;6.55;3.47;;;;;;;10.86;57.42;98137.75;3569000;40;20162;-64
2021/04/11 00:51:12;;;;;;;4.80;3.45;;;;;;;10.91;57.96;98139.75;3568960;40;20056;-64
2021/04/11 00:53:41;;;;;;;4.05;2.45;;;;;;;11.00;57.81;98145.63;3568001;40;20309;-64
2021/04/11 00:56:09;;;;;;;6.30;2.58;;;;;;;11.12;57.44;98136.78;3567228;40;20053;-64
2021/04/11 00:58:38;;;;;;;3.38;2.38;;;;;;;11.22;57.70;98128.38;3567569;40;20053;-64
2021/04/11 01:01:06;;;;;;;6.57;2.78;;;;;;;11.29;57.49;98126.50;3568554;40;20041;-64
2021/04/11 01:03:37;;;;;;;6.13;2.40;;;;;;;11.37;57.49;98130.75;3568499;40;20061;-64
2021/04/11 01:06:07;;;;;;;7.18;2.75;;;;;;;11.38;57.59;98127.06;3567327;40;20045;-65
2021/04/11 01:08:35;;;;;;;3.47;1.92;;;;;;;11.43;57.69;98123.78;3567886;40;20061;-63
2021/04/11 01:11:09;;;;;;;6.03;3.38;;;;;;;11.46;57.75;98120.69;3567444;40;20049;-64
2021/04/11 01:13:42;;;;;;;4.70;2.20;;;;;;;11.48;57.82;98118.66;3568696;40;20057;-64
2021/04/11 01:16:11;;;;;;;3.17;2.13;;;;;;;11.50;57.88;98113.94;3568500;40;20325;-64
2021/04/11 01:18:39;;;;;;;6.32;2.63;;;;;;;11.52;57.93;98109.28;3568616;40;20334;-65
2021/04/11 01:21:12;;;;;;;3.13;2.17;;;;;;;11.54;57.86;98105.38;3568536;40;20041;-64
2021/04/11 01:23:50;;;;;;;2.83;2.00;;;;;;;11.57;57.99;98107.59;3568172;40;20053;-64
2021/04/11 01:26:20;;;;;;;5.38;2.47;;;;;;;11.56;57.84;98107.81;3567455;40;20058;-64
2021/04/11 01:28:48;;;;;;;4.32;2.60;;;;;;;11.61;57.84;98103.47;3568520;40;20045;-64
2021/04/11 01:31:16;;;;;;;4.68;2.72;;;;;;;11.68;57.70;98092.84;3568478;40;20406;-64
2021/04/11 01:33:49;;;;;;;4.55;2.67;;;;;;;11.70;57.87;98097.91;3569779;40;20052;-64
2021/04/11 01:36:21;;;;;;;6.40;2.58;;;;;;;11.65;57.68;98098.56;3568849;40;20127;-64
2021/04/11 01:38:48;;;;;;;3.28;2.38;;;;;;;11.60;57.96;98095.78;3569161;40;20104;-65
2021/04/11 01:41:22;;;;;;;4.18;2.50;;;;;;;11.56;58.05;98089.28;3569094;40;20057;-64
2021/04/11 01:43:51;;;;;;;3.55;2.53;;;;;;;11.53;58.18;98085.22;3569757;40;20482;-65
2021/04/11 01:46:19;;;;;;;2.90;2.10;;;;;;;11.51;58.09;98089.09;3569538;40;20472;-65
2021/04/11 01:48:47;;;;;;;4.47;1.88;;;;;;;11.53;58.13;98089.72;3569879;40;20053;-65
2021/04/11 01:51:18;;;;;;;4.38;2.00;;;;;;;11.52;58.53;98082.81;3568551;40;20065;-64
2021/04/11 01:53:47;;;;;;;2.50;2.20;;;;;;;11.52;58.57;98088.09;3569778;40;20056;-65
2021/04/11 01:56:17;;;;;;;2.83;2.13;;;;;;;11.52;58.58;98077.50;3568766;40;20045;-64
2021/04/11 01:58:48;;;;;;;7.28;2.30;;;;;;;11.51;58.97;98082.00;3568599;40;20050;-65
2021/04/11 02:01:25;;;;;;;3.33;2.25;;;;;;;11.54;58.81;98083.38;3568988;40;20395;-64
2021/04/11 02:03:56;;;;;;;4.68;2.10;;;;;;;11.52;58.49;98080.16;3568557;40;20056;-64
2021/04/11 02:06:26;;;;;;;4.57;2.33;;;;;;;11.54;58.77;98083.38;3568764;40;20072;-65
2021/04/11 02:09:06;;;;;;;4.78;2.28;;;;;;;11.62;58.92;98081.28;3568690;40;20432;-65
2021/04/11 02:11:48;;;;;;;3.75;2.33;;;;;;;11.69;58.79;98083.06;3568833;40;20047;-65
2021/04/11 02:14:16;;;;;;;4.50;2.50;;;;;;;11.68;59.04;98070.88;3568509;40;20030;-65
2021/04/11 02:16:43;;;;;;;4.35;2.28;;;;;;;11.66;58.90;98076.34;3569541;40;20049;-65
2021/04/11 02:19:14;;;;;;;4.78;2.10;;;;;;;11.72;58.58;98078.16;3568577;40;20076;-65
2021/04/11 02:21:44;;;;;;;3.63;1.70;;;;;;;11.71;58.60;98068.56;3568669;40;20045;-65
2021/04/11 02:24:12;;;;;;;3.05;1.70;;;;;;;11.72;58.44;98066.75;3568773;40;20384;-64
2021/04/11 02:26:40;;;;;;;3.95;1.92;;;;;;;11.71;58.29;98073.84;3569882;40;20057;-65
2021/04/11 02:29:09;;;;;;;3.92;1.75;;;;;;;11.72;58.34;98069.41;3571435;40;20045;-64
2021/04/11 02:31:37;;;;;;;5.97;2.30;;;;;;;11.72;58.41;98066.75;3568930;40;20041;-64
2021/04/11 02:34:21;;;;;;;3.00;1.70;;;;;;;11.75;58.41;98068.94;3568146;40;20042;-64
2021/04/11 02:36:54;;;;;;;3.33;2.10;;;;;;;11.77;58.28;98070.34;3568730;40;20123;-65
2021/04/11 02:39:25;;;;;;;3.10;1.92;;;;;;;11.75;58.22;98072.41;3568742;40;20025;-65
2021/04/11 02:41:55;;;;;;;3.50;2.10;;;;;;;11.74;58.34;98069.97;3569494;40;20073;-65
2021/04/11 02:44:25;;;;;;;3.65;1.75;;;;;;;11.74;58.33;98072.63;3568056;40;20029;-65
2021/04/11 02:46:53;;;;;;;3.03;1.90;;;;;;;11.68;58.62;98081.44;3569580;40;20089;-65
2021/04/11 02:49:23;;;;;;;6.40;2.17;;;;;;;11.62;59.52;98075.97;3569884;40;20417;-65
2021/04/11 02:51:53;;;;;;;4.70;1.90;;;;;;;11.52;60.35;98073.03;3569118;40;20387;-65
2021/04/11 02:54:27;;;;;;;2.67;1.90;;;;;;;11.46;61.24;98067.78;3570075;40;20080;-65
2021/04/11 02:57:03;;;;;;;4.93;2.05;;;;;;;11.33;62.27;98076.63;3568909;40;20123;-64
2021/04/11 02:59:34;;;;;;;4.80;2.50;;;;;;;11.33;62.87;98072.13;3568501;40;20123;-63
2021/04/11 03:02:04;;;;;;;3.75;1.92;;;;;;;11.25;63.31;98072.41;3568921;40;20039;-63
2021/04/11 03:04:36;;;;;;;3.55;1.73;;;;;;;11.14;64.26;98065.97;3568172;40;20131;-63
2021/04/11 03:07:12;;;;;;;3.50;2.42;;;;;;;11.15;64.05;98074.72;3568673;40;20057;-64
2021/04/11 03:09:43;;;;;;;5.13;2.00;;;;;;;11.17;64.44;98062.09;3569452;40;20139;-64
2021/04/11 03:12:18;;;;;;;5.93;2.47;;;;;;;11.19;64.46;98064.53;3569335;40;20049;-64
2021/04/11 03:14:46;;;;;;;5.30;2.88;;;;;;;11.25;64.62;98066.31;3609059;22;20088;-66
2021/04/11 03:17:23;;;;;;;7.40;2.63;;;;;;;11.27;64.21;98069.56;3578595;40;20441;-66
2021/04/11 03:19:58;;;;;;;4.20;2.53;;;;;;;11.22;64.49;98066.72;3579392;40;20044;-66
2021/04/11 03:22:25;;;;;;;6.32;3.83;;;;;;;11.13;64.91;98061.69;3579802;40;20057;-66
2021/04/11 03:24:52;;;;;;;9.65;2.80;;;;;;;11.13;65.26;98064.34;3578425;40;20089;-66
2021/04/11 03:27:30;;;;;;;2.28;1.80;;;;;;;11.16;65.42;98068.41;3579506;40;20053;-67
2021/04/11 03:30:02;;;;;;;4.47;2.58;;;;;;;11.22;65.43;98070.19;3580177;40;20283;-66
2021/04/11 03:32:35;;;;;;;3.67;2.35;;;;;;;11.27;64.76;98067.72;3578272;40;20323;-66
2021/04/11 03:35:08;;;;;;;8.35;3.85;;;;;;;11.26;65.07;98067.91;3578005;40;20056;-66
2021/04/11 03:37:39;;;;;;;3.25;2.13;;;;;;;11.27;64.85;98054.50;3578391;40;20110;-66
2021/04/11 03:40:13;;;;;;;3.65;1.83;;;;;;;11.31;64.97;98062.81;3578338;40;20047;-66
2021/04/11 03:42:44;;;;;;;6.68;3.13;;;;;;;11.32;64.79;98069.72;3579463;40;20044;-66
2021/04/11 03:45:13;;;;;;;3.75;2.10;;;;;;;11.31;64.58;98068.09;3578917;40;20044;-66
2021/04/11 03:47:48;;;;;;;4.57;2.80;;;;;;;11.31;64.70;98066.25;3578462;40;20134;-66
2021/04/11 03:50:21;;;;;;;3.15;2.38;;;;;;;11.32;64.68;98067.88;3578413;40;20041;-67
2021/04/11 03:53:02;;;;;;;4.13;2.10;;;;;;;11.29;64.39;98068.31;3578429;40;20048;-66
2021/04/11 03:55:34;;;;;;;4.55;2.25;;;;;;;11.32;64.44;98077.66;3578989;40;20451;-66
2021/04/11 03:58:07;;;;;;;4.35;2.22;;;;;;;11.30;64.20;98075.22;3577948;40;20049;-66
2021/04/11 04:00:47;;;;;;;5.38;2.08;;;;;;;11.31;63.88;98071.56;3579548;40;20080;-66
2021/04/11 04:03:20;;;;;;;6.63;2.22;;;;;;;11.30;63.85;98069.09;3578343;40;20051;-66
2021/04/11 04:05:50;;;;;;;2.72;1.70;;;;;;;11.31;63.62;98066.25;3577941;40;20040;-66
2021/04/11 04:08:17;;;;;;;5.07;1.88;;;;;;;11.32;63.98;98067.88;3579454;40;20060;-66
2021/04/11 04:10:59;;;;;;;5.05;2.22;;;;;;;11.35;63.65;98066.66;3578364;40;20400;-66
2021/04/11 04:13:42;;;;;;;3.25;1.90;;;;;;;11.41;63.43;98068.41;3578280;40;20357;-66
2021/04/11 04:16:17;;;;;;;;;;;;;;;11.41;63.27;98071.06;3578386;40;20037;-66
2021/04/11 04:19:11;;;;;;;4.85;1.90;;;;;;;11.48;63.33;98073.66;3578544;40;19929;-66
2021/04/11 04:22:05;;;;;;;2.67;2.13;;;;;;;11.50;63.06;98063.66;3578541;40;20051;-66
2021/04/11 04:24:49;;;;;;;7.20;2.55;;;;;;;11.44;63.04;98072.47;3578091;40;20041;-67
2021/04/11 04:27:39;;;;;;;4.00;1.95;;;;;;;11.41;63.70;98068.41;3578639;40;20288;-66
2021/04/11 04:30:20;;;;;;;4.47;1.90;;;;;;;11.41;63.58;98069.22;3578304;40;20045;-66
2021/04/11 04:33:19;;;;;;;4.40;1.88;;;;;;;11.36;63.32;98065.63;3578544;40;20040;-66
2021/04/11 04:36:00;;;;;;;3.13;1.83;;;;;;;11.31;63.71;98065.47;3578413;40;20053;-66
2021/04/11 04:38:34;;;;;;;2.17;1.98;;;;;;;11.34;63.45;98063.16;3579368;40;20049;-67
2021/04/11 04:41:10;;;;;;;3.42;1.90;;;;;;;11.32;63.16;98059.94;3578211;40;20045;-66
2021/04/11 04:43:52;;;;;;;4.63;2.25;;;;;;;11.30;62.80;98061.16;3579405;40;20045;-67
2021/04/11 04:46:35;;;;;;;3.03;1.98;;;;;;;11.28;61.92;98064.03;3577991;40;20409;-67
2021/04/11 04:49:11;;;;;;;3.30;1.77;;;;;;;11.23;61.95;98068.38;3578309;40;20060;-67
2021/04/11 04:51:45;;;;;;;4.00;2.17;;;;;;;11.23;61.80;98069.19;3579004;40;20045;-67
2021/04/11 04:54:19;;;;;;;4.05;2.10;;;;;;;11.25;61.71;98067.09;3577798;40;20056;-66
2021/04/11 04:56:48;;;;;;;;;;;;;;;11.23;61.40;98063.88;3579248;40;20411;-66
2021/04/11 04:59:23;;;;;;;3.47;1.80;;;;;;;11.23;61.72;98069.19;3578036;40;19929;-66
2021/04/11 05:02:02;;;;;;;3.63;2.00;;;;;;;11.23;61.44;98063.88;3577705;40;20390;-67
2021/04/11 05:04:41;;;;;;;4.90;1.85;;;;;;;11.23;61.48;98063.88;3577540;40;20077;-67
2021/04/11 05:07:13;;;;;;;3.90;1.88;;;;;;;11.25;61.53;98066.31;3577759;40;20045;-67
2021/04/11 05:09:48;;;;;;;6.18;2.50;;;;;;;11.27;61.17;98065.06;3577908;40;20086;-67
2021/04/11 05:12:47;;;;;;;6.60;2.60;;;;;;;11.30;61.01;98069.09;3578091;40;20429;-67
2021/04/11 05:15:18;;;;;;;5.18;2.08;;;;;;;11.35;60.92;98066.66;3577909;40;20049;-66
2021/04/11 05:17:57;;;;;;;2.97;2.08;;;;;;;11.36;61.13;98065.63;3577989;40;20057;-67
2021/04/11 05:20:27;;;;;;;3.03;2.00;;;;;;;11.43;60.95;98063.75;3577729;40;20048;-67
2021/04/11 05:23:06;;;;;;;5.18;2.22;;;;;;;11.41;60.71;98052.53;3577911;40;20316;-67
2021/04/11 05:25:40;;;;;;;5.03;2.40;;;;;;;11.49;60.54;98062.06;3578614;40;20121;-67
2021/04/11 05:28:13;;;;;;;2.83;1.73;;;;;;;11.56;60.28;98065.47;3577728;40;20487;-67
2021/04/11 05:30:50;;;;;;;3.58;2.10;;;;;;;11.57;60.39;98062.59;3578233;40;20296;-67
2021/04/11 05:33:20;;;;;;;5.82;1.95;;;;;;;11.59;60.28;98073.78;3578764;40;20065;-67
2021/04/11 05:35:50;;;;;;;4.78;2.00;;;;;;;11.64;60.35;98066.00;3577588;40;20446;-67
2021/04/11 05:38:25;;;;;;;4.28;1.80;;;;;;;11.68;60.00;98071.66;3578479;40;20122;-67
2021/04/11 05:40:55;;;;;;;4.30;1.80;;;;;;;11.73;60.03;98071.81;3577769;40;20052;-66
2021/04/11 05:43:29;;;;;;;5.53;2.13;;;;;;;11.73;59.41;98076.31;3579477;40;20048;-67
2021/04/11 05:45:59;;;;;;;;;;;;;;;11.69;59.10;98080.41;3578845;40;20044;-67
2021/04/11 05:48:34;;;;;;;4.20;2.00;;;;;;;11.69;59.24;98078.56;3578846;40;20304;-67
2021/04/11 05:51:04;;;;;;;3.03;2.15;;;;;;;11.74;58.99;98080.56;3578967;40;20045;-67
2021/04/11 05:53:36;;;;;;;1.95;1.70;;;;;;;11.78;58.89;98085.22;3578873;40;20320;-67
2021/04/11 05:56:07;;;;;;;4.75;2.15;;;;;;;11.87;58.65;98088.41;3578540;40;20053;-67
2021/04/11 05:58:41;;;;;;;4.03;2.20;;;;;;;11.87;58.30;98083.94;3578517;40;20040;-66
2021/04/11 06:01:12;;;;;;;4.28;2.00;;;;;;;11.94;58.25;98089.16;3577251;40;20056;-66
2021/04/11 06:03:45;;;;;;;4.72;1.75;;;;;;;12.00;57.39;98098.91;3577541;40;20335;-66
2021/04/11 06:06:18;;;;;;;3.78;2.30;;;;;;;12.02;57.23;98090.72;3578082;40;20045;-66
2021/04/11 06:08:54;;;;;;;4.90;1.65;;;;;;;12.06;56.90;98092.72;3578422;40;20134;-66
2021/04/11 06:11:30;;;;;;;3.38;1.95;;;;;;;12.16;56.71;98092.19;3578347;40;20452;-66
2021/04/11 06:14:01;;;;;;;4.55;1.77;;;;;;;12.09;56.44;98088.84;3578635;40;20048;-66
2021/04/11 06:16:30;;;;;;;4.65;1.60;;;;;;;12.09;56.72;98089.63;3578610;40;20048;-66
2021/04/11 06:19:00;;;;;;;5.10;2.03;;;;;;;12.11;56.50;98095.50;3579031;40;20410;-66
2021/04/11 06:21:38;;;;;;;2.70;1.77;;;;;;;12.05;56.81;98091.09;3580050;40;20049;-66
2021/04/11 06:24:17;;;;;;;6.63;2.10;;;;;;;12.09;56.62;98091.47;3579858;40;20420;-67
2021/04/11 06:26:49;;;;;;;6.72;2.60;;;;;;;12.09;56.34;98091.47;3580292;40;20053;-67
2021/04/11 06:29:21;;;;;;;5.10;2.35;;;;;;;12.09;56.11;98094.13;3579794;40;20049;-66
2021/04/11 06:31:56;;;;;;;5.07;2.30;;;;;;;12.14;55.99;98095.09;3579788;40;20400;-66
2021/04/11 06:34:30;;;;;;;4.55;2.83;;;;;;;12.23;55.86;98100.09;3580112;40;20049;-67
2021/04/11 06:37:02;;;;;;;6.47;3.28;;;;;;;12.26;55.98;98102.31;3579833;40;20122;-66
2021/04/11 06:39:34;;;;;;;4.63;3.17;;;;;;;12.37;55.64;98101.59;3579309;40;20041;-67
2021/04/11 06:42:19;;;;;;;6.03;1.90;;;;;;;12.46;55.56;98100.25;3580150;40;20317;-66
2021/04/11 06:45:13;;;;;;;5.15;2.17;;;;;;;12.64;54.85;98096.75;3580297;40;20053;-67
2021/04/11 06:48:07;;;;;;;3.08;2.17;;;;;;;12.77;54.35;98106.41;3580941;40;20045;-66
2021/04/11 06:50:43;;;;;;;8.40;2.15;;;;;;;12.85;54.26;98103.44;3579533;40;20091;-67
2021/04/11 06:53:26;;;;;;;4.15;2.50;;;;;;;13.11;53.96;98095.13;3579637;40;20044;-66
2021/04/11 06:56:10;;;;;;;6.07;2.22;;;;;;;13.37;52.68;98091.28;3580683;40;20060;-66
2021/04/11 06:58:47;;;;;;;3.15;1.90;;;;;;;13.53;53.01;98083.72;3580569;40;20052;-67
2021/04/11 07:02:01;;;;;;;6.22;2.63;;;;;;;13.61;52.35;98088.69;3580629;40;20323;-67
2021/04/11 07:04:59;;;;;;;5.97;2.30;;;;;;;13.49;51.79;98087.88;3579911;40;20049;-66
2021/04/11 07:08:00;;;;;;;4.40;2.25;;;;;;;13.24;52.60;98103.97;3579915;40;20101;-67
2021/04/11 07:10:35;;;;;;;8.20;2.13;;;;;;;13.13;52.84;98087.75;3583659;40;20045;-66
2021/04/11 07:13:37;;;;;;;5.03;2.47;;;;;;;13.20;53.06;98086.84;3583771;40;20323;-67
2021/04/11 07:16:23;;;;;;;3.70;1.58;;;;;;;13.19;52.65;98079.94;3583985;40;20113;-67
2021/04/11 07:19:16;;;;;;;2.67;1.95;;;;;;;13.09;52.81;98091.06;3582750;40;20428;-66
2021/04/11 07:22:09;;;;;;;4.82;2.40;;;;;;;13.02;52.92;98099.16;3560224;40;20045;-67
2021/04/11 07:25:28;;;;;;;3.07;2.00;;;;;;;12.97;53.24;98101.63;3560120;40;20079;-67
2021/04/11 07:28:17;;;;;;;5.90;2.35;;;;;;;13.06;53.10;98099.47;3560753;40;20042;-67
2021/04/11 07:30:50;;;;;;;5.55;2.72;;;;;;;13.09;52.79;98094.53;3552094;40;20049;-67
2021/04/11 07:33:40;;;;;;;4.10;2.17;;;;;;;13.25;52.91;98109.03;3569148;40;20316;-67
2021/04/11 07:36:33;;;;;;;7.72;4.40;;;;;;;13.32;52.55;98098.34;3579441;40;20071;-67
2021/04/11 07:39:41;;;;;;;5.50;2.08;;;;;;;13.36;52.16;98094.19;3579728;40;20025;-67
2021/04/11 07:42:22;;;;;;;6.30;2.88;;;;;;;13.57;51.93;98096.28;3579215;40;20064;-66
2021/04/11 07:45:10;;;;;;;5.15;2.45;;;;;;;13.77;51.82;98098.63;3579349;40;20037;-66
2021/04/11 07:47:54;;;;;;;5.97;1.92;;;;;;;13.71;51.61;98101.38;3579361;40;20048;-66
2021/04/11 07:50:30;;;;;;;4.47;2.50;;;;;;;13.58;51.78;98097.91;3579905;40;20369;-67
2021/04/11 07:53:18;;;;;;;4.28;2.42;;;;;;;13.57;51.89;98101.59;3579534;40;20045;-67
2021/04/11 07:55:53;;;;;;;5.38;2.45;;;;;;;13.49;51.98;98107.25;3579287;40;20060;-66
2021/04/11 07:58:38;;;;;;;3.38;2.45;;;;;;;13.45;52.10;98116.72;3579000;40;20072;-66
2021/04/11 08:01:19;;;;;;;5.30;2.17;;;;;;;13.31;52.48;98107.34;3578439;40;20041;-67
2021/04/11 08:04:08;;;;;;;5.60;2.33;;;;;;;13.24;53.03;98102.13;3578219;40;20408;-67
2021/04/11 08:06:58;;;;;;;3.40;2.40;;;;;;;13.28;53.53;98102.47;3579451;40;20049;-67
2021/04/11 08:09:35;;;;;;;2.90;2.13;;;;;;;13.33;53.66;98103.41;3557627;40;20102;-67
2021/04/11 08:12:22;;;;;;;4.13;2.42;;;;;;;13.54;53.92;98095.94;3579401;40;20048;-67
2021/04/11 08:15:00;;;;;;;3.63;2.05;;;;;;;13.61;53.25;98092.16;3579348;40;20077;-66
2021/04/11 08:17:38;;;;;;;5.35;2.63;;;;;;;13.74;52.66;98087.66;3579381;40;20056;-66
2021/04/11 08:20:16;;;;;;;6.88;2.17;;;;;;;13.84;52.55;98085.25;3579415;40;20106;-66
2021/04/11 08:23:22;;;;;;;3.72;2.10;;;;;;;13.97;52.37;98095.63;3579704;40;20049;-71
2021/04/11 08:25:57;;;;;;;3.30;2.42;;;;;;;14.14;51.62;98090.44;3579158;40;20048;-66
2021/04/11 08:28:44;;;;;;;4.03;1.90;;;;;;;14.02;51.45;98105.56;3579274;40;20382;-66
2021/04/11 08:31:40;;;;;;;4.63;2.00;;;;;;;13.97;51.99;98105.47;3579639;40;20041;-66
2021/04/11 08:34:32;;;;;;;3.88;2.10;;;;;;;13.97;52.22;98110.78;3571091;40;20044;-67
2021/04/11 08:37:37;;;;;;;4.40;2.00;;;;;;;13.88;52.15;98111.13;3579461;40;20051;-66
2021/04/11 08:40:14;;;;;;;6.68;4.15;;;;;;;13.79;52.03;98117.78;3578817;40;20052;-67
2021/04/11 08:42:56;;;;;;;4.50;2.92;;;;;;;13.67;52.19;98119.63;3582682;40;20053;-67
2021/04/11 08:45:35;;;;;;;7.97;4.82;;;;;;;13.56;52.47;98120.44;3586555;40;20049;-65
2021/04/11 08:48:27;;;;;;;4.28;3.10;;;;;;;13.48;52.75;98126.06;3587386;40;20102;-66
2021/04/11 08:51:01;;;;;;;5.82;3.05;;;;;;;13.50;52.71;98129.31;3588715;40;20044;-67
2021/04/11 08:53:32;;;;;;;4.57;2.22;;;;;;;13.43;53.16;98137.38;3587380;40;20049;-66
2021/04/11 08:56:06;;;;;;;5.53;2.72;;;;;;;13.28;52.64;98140.44;3588682;40;20048;-67
2021/04/11 08:58:40;;;;;;;4.60;2.90;;;;;;;13.20;52.84;98134.63;3589277;40;20041;-67
2021/04/11 09:01:17;;;;;;;3.13;2.05;;;;;;;13.12;53.38;98141.84;3588436;40;20045;-67
2021/04/11 09:03:57;;;;;;;4.72;2.55;;;;;;;13.17;53.31;98137.72;3587817;40;20057;-67
2021/04/11 09:06:39;;;;;;;5.75;2.60;;;;;;;13.25;53.47;98132.94;3584129;40;20052;-67
2021/04/11 09:09:28;;;;;;;4.75;2.45;;;;;;;13.32;53.30;98128.34;3583648;40;20051;-67
2021/04/11 09:12:06;;;;;;;5.20;2.30;;;;;;;13.35;53.35;98135.84;3583486;40;20041;-67
2021/04/11 09:14:56;;;;;;;8.90;2.40;;;;;;;13.34;53.15;98122.78;3618870;22;20099;-63
2021/04/11 09:17:50;;;;;;;5.80;2.17;;;;;;;13.21;53.41;98130.91;3569315;40;20070;-64
2021/04/11 09:20:23;;;;;;;4.03;2.07;;;;;;;13.16;53.52;98147.53;3568895;40;20045;-66
2021/04/11 09:23:04;;;;;;;6.63;1.92;;;;;;;13.27;53.72;98138.03;3569240;40;20256;-65
2021/04/11 09:25:33;;;;;;;3.33;2.30;;;;;;;13.39;53.55;98136.22;3568434;40;20053;-65
2021/04/11 09:28:14;;;;;;;2.75;2.22;;;;;;;13.44;53.34;98135.53;3568851;40;20131;-65
2021/04/11 09:30:53;;;;;;;3.40;2.33;;;;;;;13.49;53.21;98140.97;3568919;40;20057;-65
2021/04/11 09:34:00;;;;;;;4.03;2.70;;;;;;;13.49;53.46;98144.44;3569091;40;20042;-65
2021/04/11 09:36:37;;;;;;;4.20;2.22;;;;;;;13.47;53.21;98138.56;3554315;40;20411;-66
2021/04/11 09:39:30;;;;;;;5.03;2.05;;;;;;;13.43;53.57;98128.59;3568511;40;20046;-65
2021/04/11 09:42:10;;;;;;;4.55;2.38;;;;;;;13.52;53.64;98141.31;3570553;40;20045;-65
2021/04/11 09:45:12;;;;;;;3.50;2.13;;;;;;;13.39;53.69;98146.84;3569484;40;20049;-65
2021/04/11 09:47:54;;;;;;;3.92;2.38;;;;;;;13.21;54.52;98160.91;3554993;40;20045;-65
2021/04/11 09:50:30;;;;;;;4.25;2.80;;;;;;;13.12;54.76;98163.09;3571824;40;20072;-65
2021/04/11 09:53:36;;;;;;;8.02;2.50;;;;;;;13.03;55.80;98160.97;3573083;40;20053;-65
2021/04/11 09:56:14;;;;;;;3.75;2.13;;;;;;;12.97;56.18;98160.00;3573364;40;20049;-65
2021/04/11 09:59:08;;;;;;;4.13;2.00;;;;;;;13.04;56.05;98167.88;3570889;40;20049;-65
2021/04/11 10:01:44;;;;;;;6.57;2.97;;;;;;;13.03;56.47;98183.00;3570550;40;20049;-65
2021/04/11 10:04:21;;;;;;;3.45;2.60;;;;;;;12.92;56.56;98182.94;3570103;40;20061;-66
2021/04/11 10:07:11;;;;;;;4.25;2.38;;;;;;;12.81;57.24;98182.63;3569946;40;20050;-66
2021/04/11 10:09:46;;;;;;;3.03;2.22;;;;;;;12.76;57.56;98179.84;3569719;40;20045;-65
2021/04/11 10:12:39;;;;;;;5.15;2.60;;;;;;;12.69;57.90;98181.75;3570225;40;20072;-65
2021/04/11 10:15:18;;;;;;;4.45;2.30;;;;;;;12.77;57.95;98178.81;3569484;40;20052;-65
2021/04/11 10:18:27;;;;;;;6.20;2.35;;;;;;;12.75;58.55;98182.72;3570628;40;20049;-66
2021/04/11 10:21:06;;;;;;;3.20;2.60;;;;;;;12.67;58.98;98185.69;3565143;40;20045;-66
2021/04/11 10:23:43;;;;;;;4.25;2.60;;;;;;;12.69;59.54;98189.72;3570235;40;20083;-66
2021/04/11 10:26:14;;;;;;;3.75;2.95;;;;;;;12.66;60.02;98198.13;3569614;40;20401;-65
2021/04/11 10:28:47;;;;;;;4.30;2.58;;;;;;;12.51;61.45;98198.47;3569992;40;20053;-66
2021/04/11 10:31:25;;;;;;;4.20;2.75;;;;;;;12.35;62.58;98199.84;3570094;40;20069;-65
2021/04/11 10:34:04;;;;;;;3.95;2.35;;;;;;;12.26;63.46;98197.72;3569071;40;20057;-65
2021/04/11 10:36:38;;;;;;;4.82;2.92;;;;;;;12.08;64.39;98201.09;3575326;40;20065;-65
2021/04/11 10:39:10;;;;;;;6.70;3.08;;;;;;;12.01;64.83;98198.53;3575803;40;20091;-66
2021/04/11 10:41:50;;;;;;;4.22;2.83;;;;;;;12.07;65.17;98207.44;3574240;40;20045;-65
2021/04/11 10:44:52;;;;;;;7.28;3.15;;;;;;;12.06;65.81;98206.63;3574496;40;20336;-68
2021/04/11 10:47:40;;;;;;;5.65;3.55;;;;;;;12.21;65.38;98189.59;3570904;40;20053;-63
2021/04/11 10:50:14;;;;;;;5.13;3.20;;;;;;;12.43;65.38;98195.31;3569785;40;20384;-64
2021/04/11 10:52:59;;;;;;;;;;;;;;;12.45;65.11;98199.38;3570304;40;20324;-63
2021/04/11 10:55:50;;;;;;;3.47;2.63;;;;;;;12.53;65.58;98192.94;3569440;40;19936;-64
2021/04/11 10:58:46;;;;;;;6.93;3.00;;;;;;;12.50;65.93;98201.34;3569860;40;20048;-64
2021/04/11 11:01:29;;;;;;;4.35;2.70;;;;;;;12.47;65.89;98197.28;3547363;40;20440;-64
2021/04/11 11:04:19;;;;;;;5.68;2.67;;;;;;;12.54;66.27;98195.41;3569246;40;20057;-64
2021/04/11 11:07:02;;;;;;;4.18;3.03;;;;;;;12.44;66.49;98203.03;3569773;40;20341;-64
2021/04/11 11:09:34;;;;;;;5.97;3.10;;;;;;;12.48;66.08;98198.09;3569504;40;20049;-64
2021/04/11 11:12:41;;;;;;;3.78;3.38;;;;;;;12.44;66.48;98197.72;3569537;40;20323;-64
2021/04/11 11:15:31;;;;;;;13.07;9.35;;;;;;;12.51;66.42;98206.44;3570107;40;20041;-63
2021/04/11 11:18:36;;;;;;;5.03;3.80;;;;;;;12.37;66.70;98197.81;3570072;40;20045;-63
2021/04/11 11:21:09;;;;;;;;;;;;;;;12.34;66.59;98200.88;3570482;40;20053;-64
2021/04/11 11:23:58;;;;;;;5.20;4.22;;;;;;;12.39;66.93;98206.34;3570545;40;19936;-65
2021/04/11 11:27:02;;;;;;;4.55;3.40;;;;;;;12.47;67.06;98204.44;3569435;40;20053;-65
2021/04/11 11:30:02;;;;;;;3.95;3.20;;;;;;;12.45;66.75;98206.47;3569845;40;20049;-64
2021/04/11 11:32:34;;;;;;;4.32;3.38;;;;;;;12.71;66.51;98192.16;3569261;40;20049;-64
2021/04/11 11:35:05;;;;;;;5.90;5.30;;;;;;;12.88;66.16;98206.44;3568971;40;20037;-64
2021/04/11 11:37:44;;;;;;;4.35;3.72;;;;;;;12.89;65.82;98208.06;3569687;40;20053;-64
2021/04/11 11:40:19;;;;;;;4.90;3.97;;;;;;;12.88;66.15;98212.56;3569264;40;20049;-64
2021/04/11 11:42:59;;;;;;;9.95;7.63;;;;;;;12.83;65.96;98216.91;3570183;40;20053;-65
2021/04/11 11:45:34;;;;;;;5.38;3.75;;;;;;;12.53;66.06;98217.63;3569451;40;20096;-65
2021/04/11 11:48:20;;;;;;;6.00;4.50;;;;;;;12.47;66.44;98220.34;3569496;40;20075;-64
2021/04/11 11:50:58;;;;;;;5.72;3.10;;;;;;;12.51;66.39;98214.38;3569661;40;20072;-65
2021/04/11 11:53:34;;;;;;;5.15;3.72;;;;;;;12.51;66.55;98211.72;3569287;40;20049;-66
2021/04/11 11:56:11;;;;;;;4.50;2.97;;;;;;;12.57;66.27;98218.00;3569193;40;20050;-64
2021/04/11 11:58:45;;;;;;;3.05;2.75;;;;;;;12.73;66.47;98213.94;3569307;40;20045;-64
2021/04/11 12:01:25;;;;;;;6.82;2.83;;;;;;;12.80;65.81;98212.03;3568954;40;20048;-64
2021/04/11 12:04:19;;;;;;;5.85;4.10;;;;;;;12.82;65.71;98205.50;3569296;40;20064;-64
2021/04/11 12:06:51;;;;;;;5.95;4.70;;;;;;;12.79;66.00;98216.53;3567737;40;20321;-65
2021/04/11 12:09:29;;;;;;;8.68;6.82;;;;;;;12.91;65.73;98218.47;3567986;40;20563;-65
2021/04/11 12:12:00;;;;;;;5.68;3.42;;;;;;;12.90;66.00;98217.66;3569300;40;20046;-64
2021/04/11 12:14:32;;;;;;;11.68;6.40;;;;;;;13.05;65.86;98211.97;3567915;40;20046;-63
2021/04/11 12:17:11;;;;;;;14.05;8.50;;;;;;;13.09;64.93;98210.47;3569078;40;20054;-64
2021/04/11 12:19:43;;;;;;;10.35;4.80;;;;;;;12.91;65.44;98198.06;3567863;40;20048;-63
2021/04/11 12:22:16;;;;;;;16.95;10.70;;;;;;;13.11;64.96;98203.13;3569076;40;20404;-64
2021/04/11 12:24:55;;;;;;;12.52;8.65;;;;;;;13.16;64.82;98215.72;3568827;40;20045;-64